sensor_id;sensor_type;location;lat;lon;timestamp;temperature;humidity
27803;DHT22;15182;48.174;11.562;2024-03-06T00:01:36;12.30;95.50
27803;DHT22;15182;48.174;11.562;2024-03-06T00:04:06;12.30;95.50
27803;DHT22;15182;48.174;11.562;2024-03-06T00:06:34;12.30;95.50
27803;DHT22;15182;48.174;11.562;2024-03-06T00:09:02;12.30;95.40
27803;DHT22;15182;48.174;11.562;2024-03-06T00:11:31;12.30;95.50
27803;DHT22;15182;48.174;11.562;2024-03-06T00:13:59;12.30;95.50
27803;DHT22;15182;48.174;11.562;2024-03-06T00:16:27;12.30;95.60
27803;DHT22;15182;48.174;11.562;2024-03-06T00:18:55;12.30;95.60
27803;DHT22;15182;48.174;11.562;2024-03-06T00:21:24;12.30;95.50
27803;DHT22;15182;48.174;11.562;2024-03-06T00:23:52;12.30;95.60
27803;DHT22;15182;48.174;11.562;2024-03-06T00:26:20;12.30;95.60
27803;DHT22;15182;48.174;11.562;2024-03-06T00:28:48;12.20;95.60
27803;DHT22;15182;48.174;11.562;2024-03-06T00:31:16;12.20;95.70
27803;DHT22;15182;48.174;11.562;2024-03-06T00:33:44;12.20;95.80
27803;DHT22;15182;48.174;11.562;2024-03-06T00:36:12;12.20;95.80
27803;DHT22;15182;48.174;11.562;2024-03-06T00:38:41;12.20;95.80
27803;DHT22;15182;48.174;11.562;2024-03-06T00:41:10;12.20;95.90
27803;DHT22;15182;48.174;11.562;2024-03-06T00:43:38;12.20;95.80
27803;DHT22;15182;48.174;11.562;2024-03-06T00:46:06;12.20;95.90
27803;DHT22;15182;48.174;11.562;2024-03-06T00:48:33;12.20;95.90
27803;DHT22;15182;48.174;11.562;2024-03-06T00:51:01;12.20;95.90
27803;DHT22;15182;48.174;11.562;2024-03-06T00:53:29;12.20;96.00
27803;DHT22;15182;48.174;11.562;2024-03-06T00:55:58;12.20;95.90
27803;DHT22;15182;48.174;11.562;2024-03-06T00:58:27;12.20;96.00
27803;DHT22;15182;48.174;11.562;2024-03-06T01:00:54;12.20;96.00
27803;DHT22;15182;48.174;11.562;2024-03-06T01:03:24;12.20;96.00
27803;DHT22;15182;48.174;11.562;2024-03-06T01:05:52;12.20;96.00
27803;DHT22;15182;48.174;11.562;2024-03-06T01:08:21;12.10;96.00
27803;DHT22;15182;48.174;11.562;2024-03-06T01:10:51;12.20;96.00
27803;DHT22;15182;48.174;11.562;2024-03-06T01:13:20;12.10;96.00
27803;DHT22;15182;48.174;11.562;2024-03-06T01:15:49;12.10;96.10
27803;DHT22;15182;48.174;11.562;2024-03-06T01:18:17;12.10;96.10
27803;DHT22;15182;48.174;11.562;2024-03-06T01:20:45;12.10;96.10
27803;DHT22;15182;48.174;11.562;2024-03-06T01:23:12;12.10;96.10
27803;DHT22;15182;48.174;11.562;2024-03-06T01:25:40;12.10;96.20
27803;DHT22;15182;48.174;11.562;2024-03-06T01:28:08;12.10;96.20
27803;DHT22;15182;48.174;11.562;2024-03-06T01:30:37;12.10;96.30
27803;DHT22;15182;48.174;11.562;2024-03-06T01:33:05;12.10;96.30
27803;DHT22;15182;48.174;11.562;2024-03-06T01:35:33;12.10;96.30
27803;DHT22;15182;48.174;11.562;2024-03-06T01:38:01;12.10;96.20
27803;DHT22;15182;48.174;11.562;2024-03-06T01:40:29;12.10;96.30
27803;DHT22;15182;48.174;11.562;2024-03-06T01:42:58;12.10;96.30
27803;DHT22;15182;48.174;11.562;2024-03-06T01:45:27;12.00;96.30
27803;DHT22;15182;48.174;11.562;2024-03-06T01:47:57;12.00;96.30
27803;DHT22;15182;48.174;11.562;2024-03-06T01:50:24;12.00;96.30
27803;DHT22;15182;48.174;11.562;2024-03-06T01:52:53;12.10;96.30
27803;DHT22;15182;48.174;11.562;2024-03-06T01:55:21;12.00;96.30
27803;DHT22;15182;48.174;11.562;2024-03-06T01:57:49;12.00;96.40
27803;DHT22;15182;48.174;11.562;2024-03-06T02:00:18;12.00;96.40
27803;DHT22;15182;48.174;11.562;2024-03-06T02:02:47;12.00;96.50
27803;DHT22;15182;48.174;11.562;2024-03-06T02:05:16;12.00;96.50
27803;DHT22;15182;48.174;11.562;2024-03-06T02:07:45;12.00;96.50
27803;DHT22;15182;48.174;11.562;2024-03-06T02:10:13;12.00;96.50
27803;DHT22;15182;48.174;11.562;2024-03-06T02:12:41;12.00;96.50
27803;DHT22;15182;48.174;11.562;2024-03-06T02:15:09;11.90;96.50
27803;DHT22;15182;48.174;11.562;2024-03-06T02:17:40;11.90;96.60
27803;DHT22;15182;48.174;11.562;2024-03-06T02:20:08;11.90;96.70
27803;DHT22;15182;48.174;11.562;2024-03-06T02:22:40;11.90;96.70
27803;DHT22;15182;48.174;11.562;2024-03-06T02:25:08;11.90;96.80
27803;DHT22;15182;48.174;11.562;2024-03-06T02:27:36;11.90;96.70
27803;DHT22;15182;48.174;11.562;2024-03-06T02:30:05;11.80;97.10
27803;DHT22;15182;48.174;11.562;2024-03-06T02:32:34;11.80;96.90
27803;DHT22;15182;48.174;11.562;2024-03-06T02:35:02;11.80;96.80
27803;DHT22;15182;48.174;11.562;2024-03-06T02:37:34;11.80;96.90
27803;DHT22;15182;48.174;11.562;2024-03-06T02:40:06;11.80;97.00
27803;DHT22;15182;48.174;11.562;2024-03-06T02:42:36;11.80;97.20
27803;DHT22;15182;48.174;11.562;2024-03-06T02:45:06;11.80;97.00
27803;DHT22;15182;48.174;11.562;2024-03-06T02:47:35;11.80;97.00
27803;DHT22;15182;48.174;11.562;2024-03-06T02:50:03;11.80;97.00
27803;DHT22;15182;48.174;11.562;2024-03-06T02:52:31;11.80;97.10
27803;DHT22;15182;48.174;11.562;2024-03-06T02:54:59;11.80;97.10
27803;DHT22;15182;48.174;11.562;2024-03-06T02:57:29;11.80;97.10
27803;DHT22;15182;48.174;11.562;2024-03-06T02:59:57;11.80;97.20
27803;DHT22;15182;48.174;11.562;2024-03-06T03:02:25;11.80;97.20
27803;DHT22;15182;48.174;11.562;2024-03-06T03:04:53;11.70;97.20
27803;DHT22;15182;48.174;11.562;2024-03-06T03:07:21;11.70;97.20
27803;DHT22;15182;48.174;11.562;2024-03-06T03:09:49;11.70;97.20
27803;DHT22;15182;48.174;11.562;2024-03-06T03:12:17;11.70;97.20
27803;DHT22;15182;48.174;11.562;2024-03-06T03:14:48;11.70;97.20
27803;DHT22;15182;48.174;11.562;2024-03-06T03:17:18;11.70;97.30
27803;DHT22;15182;48.174;11.562;2024-03-06T03:19:46;11.60;97.30
27803;DHT22;15182;48.174;11.562;2024-03-06T03:22:14;11.70;97.30
27803;DHT22;15182;48.174;11.562;2024-03-06T03:24:42;11.70;97.50
27803;DHT22;15182;48.174;11.562;2024-03-06T03:27:10;11.70;97.50
27803;DHT22;15182;48.174;11.562;2024-03-06T03:29:38;11.70;97.40
27803;DHT22;15182;48.174;11.562;2024-03-06T03:32:07;11.60;97.40
27803;DHT22;15182;48.174;11.562;2024-03-06T03:34:35;11.60;97.50
27803;DHT22;15182;48.174;11.562;2024-03-06T03:37:03;11.60;97.80
27803;DHT22;15182;48.174;11.562;2024-03-06T03:39:31;11.60;97.50
27803;DHT22;15182;48.174;11.562;2024-03-06T03:41:59;11.60;97.90
27803;DHT22;15182;48.174;11.562;2024-03-06T03:44:27;11.50;97.50
27803;DHT22;15182;48.174;11.562;2024-03-06T03:46:55;11.50;97.60
27803;DHT22;15182;48.174;11.562;2024-03-06T03:49:24;11.60;97.60
27803;DHT22;15182;48.174;11.562;2024-03-06T03:51:52;11.60;97.70
27803;DHT22;15182;48.174;11.562;2024-03-06T03:54:20;11.60;97.70
27803;DHT22;15182;48.174;11.562;2024-03-06T03:56:48;11.60;97.70
27803;DHT22;15182;48.174;11.562;2024-03-06T03:59:16;11.60;97.70
27803;DHT22;15182;48.174;11.562;2024-03-06T04:01:45;11.60;97.70
27803;DHT22;15182;48.174;11.562;2024-03-06T04:04:13;11.60;97.70
27803;DHT22;15182;48.174;11.562;2024-03-06T04:06:43;11.60;97.70
27803;DHT22;15182;48.174;11.562;2024-03-06T04:09:11;11.60;97.70
27803;DHT22;15182;48.174;11.562;2024-03-06T04:11:41;11.60;97.70
27803;DHT22;15182;48.174;11.562;2024-03-06T04:14:09;11.60;97.60
27803;DHT22;15182;48.174;11.562;2024-03-06T04:16:37;11.60;97.70
27803;DHT22;15182;48.174;11.562;2024-03-06T04:19:05;11.60;97.70
27803;DHT22;15182;48.174;11.562;2024-03-06T04:21:32;11.60;98.10
27803;DHT22;15182;48.174;11.562;2024-03-06T04:24:02;11.60;97.80
27803;DHT22;15182;48.174;11.562;2024-03-06T04:26:30;11.60;97.90
27803;DHT22;15182;48.174;11.562;2024-03-06T04:28:57;11.60;97.80
27803;DHT22;15182;48.174;11.562;2024-03-06T04:31:25;11.60;97.80
27803;DHT22;15182;48.174;11.562;2024-03-06T04:33:53;11.60;97.90
27803;DHT22;15182;48.174;11.562;2024-03-06T04:36:21;11.60;97.90
27803;DHT22;15182;48.174;11.562;2024-03-06T04:38:49;11.60;97.80
27803;DHT22;15182;48.174;11.562;2024-03-06T04:41:19;11.60;97.80
27803;DHT22;15182;48.174;11.562;2024-03-06T04:43:47;11.60;97.90
27803;DHT22;15182;48.174;11.562;2024-03-06T04:46:17;11.60;97.90
27803;DHT22;15182;48.174;11.562;2024-03-06T04:48:44;11.70;98.00
27803;DHT22;15182;48.174;11.562;2024-03-06T04:51:14;11.60;97.90
27803;DHT22;15182;48.174;11.562;2024-03-06T04:53:42;11.60;97.90
27803;DHT22;15182;48.174;11.562;2024-03-06T04:56:10;11.60;97.80
27803;DHT22;15182;48.174;11.562;2024-03-06T04:58:40;11.60;97.90
27803;DHT22;15182;48.174;11.562;2024-03-06T05:01:08;11.60;97.90
27803;DHT22;15182;48.174;11.562;2024-03-06T05:03:36;11.60;97.90
27803;DHT22;15182;48.174;11.562;2024-03-06T05:06:05;11.60;97.90
27803;DHT22;15182;48.174;11.562;2024-03-06T05:08:33;11.60;98.00
27803;DHT22;15182;48.174;11.562;2024-03-06T05:11:01;11.60;98.00
27803;DHT22;15182;48.174;11.562;2024-03-06T05:13:29;11.60;98.00
27803;DHT22;15182;48.174;11.562;2024-03-06T05:15:58;11.60;98.10
27803;DHT22;15182;48.174;11.562;2024-03-06T05:18:26;11.60;98.20
27803;DHT22;15182;48.174;11.562;2024-03-06T05:20:54;11.60;98.10
27803;DHT22;15182;48.174;11.562;2024-03-06T05:23:22;11.60;98.10
27803;DHT22;15182;48.174;11.562;2024-03-06T05:25:50;11.60;98.10
27803;DHT22;15182;48.174;11.562;2024-03-06T05:28:18;11.70;98.10
27803;DHT22;15182;48.174;11.562;2024-03-06T05:30:46;11.70;98.10
27803;DHT22;15182;48.174;11.562;2024-03-06T05:33:15;11.70;98.10
27803;DHT22;15182;48.174;11.562;2024-03-06T05:35:43;11.70;98.10
27803;DHT22;15182;48.174;11.562;2024-03-06T05:38:11;11.70;98.10
27803;DHT22;15182;48.174;11.562;2024-03-06T05:40:39;11.60;98.00
27803;DHT22;15182;48.174;11.562;2024-03-06T05:43:11;11.70;97.90
27803;DHT22;15182;48.174;11.562;2024-03-06T05:45:39;11.60;97.90
27803;DHT22;15182;48.174;11.562;2024-03-06T05:48:07;11.60;97.80
27803;DHT22;15182;48.174;11.562;2024-03-06T05:50:37;11.60;97.70
27803;DHT22;15182;48.174;11.562;2024-03-06T05:53:05;11.60;97.80
27803;DHT22;15182;48.174;11.562;2024-03-06T05:55:33;11.60;97.70
27803;DHT22;15182;48.174;11.562;2024-03-06T05:58:01;11.60;97.60
27803;DHT22;15182;48.174;11.562;2024-03-06T06:00:29;11.60;97.50
27803;DHT22;15182;48.174;11.562;2024-03-06T06:02:57;11.60;97.40
27803;DHT22;15182;48.174;11.562;2024-03-06T06:05:24;11.60;97.40
27803;DHT22;15182;48.174;11.562;2024-03-06T06:07:54;11.60;97.40
27803;DHT22;15182;48.174;11.562;2024-03-06T06:10:22;11.50;97.50
27803;DHT22;15182;48.174;11.562;2024-03-06T06:12:50;11.50;97.40
27803;DHT22;15182;48.174;11.562;2024-03-06T06:15:18;11.50;97.40
27803;DHT22;15182;48.174;11.562;2024-03-06T06:17:46;11.50;97.50
27803;DHT22;15182;48.174;11.562;2024-03-06T06:20:14;11.50;97.40
27803;DHT22;15182;48.174;11.562;2024-03-06T06:22:44;11.50;97.40
27803;DHT22;15182;48.174;11.562;2024-03-06T06:25:13;11.50;97.40
27803;DHT22;15182;48.174;11.562;2024-03-06T06:27:42;11.50;97.50
27803;DHT22;15182;48.174;11.562;2024-03-06T06:30:11;11.50;97.50
27803;DHT22;15182;48.174;11.562;2024-03-06T06:32:40;11.40;97.40
27803;DHT22;15182;48.174;11.562;2024-03-06T06:35:08;11.40;97.40
27803;DHT22;15182;48.174;11.562;2024-03-06T06:37:37;11.40;97.40
27803;DHT22;15182;48.174;11.562;2024-03-06T06:40:07;11.40;97.40
27803;DHT22;15182;48.174;11.562;2024-03-06T06:42:37;11.40;97.40
27803;DHT22;15182;48.174;11.562;2024-03-06T06:45:06;11.40;97.40
27803;DHT22;15182;48.174;11.562;2024-03-06T06:47:35;11.40;97.50
27803;DHT22;15182;48.174;11.562;2024-03-06T06:50:04;11.40;97.40
27803;DHT22;15182;48.174;11.562;2024-03-06T06:52:32;11.40;97.40
27803;DHT22;15182;48.174;11.562;2024-03-06T06:55:01;11.40;97.30
27803;DHT22;15182;48.174;11.562;2024-03-06T06:57:29;11.30;97.30
27803;DHT22;15182;48.174;11.562;2024-03-06T06:59:58;11.30;97.20
27803;DHT22;15182;48.174;11.562;2024-03-06T07:02:26;11.30;97.40
27803;DHT22;15182;48.174;11.562;2024-03-06T07:04:54;11.30;97.40
27803;DHT22;15182;48.174;11.562;2024-03-06T07:07:22;11.20;97.40
27803;DHT22;15182;48.174;11.562;2024-03-06T07:09:50;11.20;97.40
27803;DHT22;15182;48.174;11.562;2024-03-06T07:12:18;11.20;97.40
27803;DHT22;15182;48.174;11.562;2024-03-06T07:14:46;11.20;97.50
27803;DHT22;15182;48.174;11.562;2024-03-06T07:17:15;11.20;97.60
27803;DHT22;15182;48.174;11.562;2024-03-06T07:19:43;11.20;97.70
27803;DHT22;15182;48.174;11.562;2024-03-06T07:22:11;11.20;97.70
27803;DHT22;15182;48.174;11.562;2024-03-06T07:24:39;11.20;97.70
27803;DHT22;15182;48.174;11.562;2024-03-06T07:27:07;11.20;97.60
27803;DHT22;15182;48.174;11.562;2024-03-06T07:29:35;11.20;97.70
27803;DHT22;15182;48.174;11.562;2024-03-06T07:32:04;11.20;97.70
27803;DHT22;15182;48.174;11.562;2024-03-06T07:34:34;11.20;97.80
27803;DHT22;15182;48.174;11.562;2024-03-06T07:37:02;11.20;97.80
27803;DHT22;15182;48.174;11.562;2024-03-06T07:39:30;11.20;97.80
27803;DHT22;15182;48.174;11.562;2024-03-06T07:41:58;11.20;97.80
27803;DHT22;15182;48.174;11.562;2024-03-06T07:44:26;11.20;97.70
27803;DHT22;15182;48.174;11.562;2024-03-06T07:46:54;11.20;97.70
27803;DHT22;15182;48.174;11.562;2024-03-06T07:49:22;11.20;97.60
27803;DHT22;15182;48.174;11.562;2024-03-06T07:51:51;11.20;97.60
27803;DHT22;15182;48.174;11.562;2024-03-06T07:54:19;11.20;97.70
27803;DHT22;15182;48.174;11.562;2024-03-06T07:56:47;11.10;97.60
27803;DHT22;15182;48.174;11.562;2024-03-06T07:59:15;11.10;97.60
27803;DHT22;15182;48.174;11.562;2024-03-06T08:01:44;11.10;97.60
27803;DHT22;15182;48.174;11.562;2024-03-06T08:04:12;11.10;97.60
27803;DHT22;15182;48.174;11.562;2024-03-06T08:06:41;11.10;97.60
27803;DHT22;15182;48.174;11.562;2024-03-06T08:09:10;11.20;97.70
27803;DHT22;15182;48.174;11.562;2024-03-06T08:11:38;11.10;97.70
27803;DHT22;15182;48.174;11.562;2024-03-06T08:14:06;11.10;97.70
27803;DHT22;15182;48.174;11.562;2024-03-06T08:16:34;11.10;98.00
27803;DHT22;15182;48.174;11.562;2024-03-06T08:19:03;11.10;97.50
27803;DHT22;15182;48.174;11.562;2024-03-06T08:21:31;11.10;97.50
27803;DHT22;15182;48.174;11.562;2024-03-06T08:23:59;11.10;97.50
27803;DHT22;15182;48.174;11.562;2024-03-06T08:26:28;11.00;97.60
27803;DHT22;15182;48.174;11.562;2024-03-06T08:28:56;11.00;97.70
27803;DHT22;15182;48.174;11.562;2024-03-06T08:31:24;11.00;97.80
27803;DHT22;15182;48.174;11.562;2024-03-06T08:33:52;11.00;97.80
27803;DHT22;15182;48.174;11.562;2024-03-06T08:36:20;11.00;97.80
27803;DHT22;15182;48.174;11.562;2024-03-06T08:38:50;11.00;97.80
27803;DHT22;15182;48.174;11.562;2024-03-06T08:41:18;11.00;97.80
27803;DHT22;15182;48.174;11.562;2024-03-06T08:43:47;11.00;98.00
27803;DHT22;15182;48.174;11.562;2024-03-06T08:46:16;11.00;98.10
27803;DHT22;15182;48.174;11.562;2024-03-06T08:48:43;11.00;98.10
27803;DHT22;15182;48.174;11.562;2024-03-06T08:51:12;11.00;98.10
27803;DHT22;15182;48.174;11.562;2024-03-06T08:53:40;11.00;98.10
27803;DHT22;15182;48.174;11.562;2024-03-06T08:56:08;11.10;98.20
27803;DHT22;15182;48.174;11.562;2024-03-06T08:58:36;11.10;98.20
27803;DHT22;15182;48.174;11.562;2024-03-06T09:01:13;11.10;98.20
27803;DHT22;15182;48.174;11.562;2024-03-06T09:03:41;11.10;98.10
27803;DHT22;15182;48.174;11.562;2024-03-06T09:06:09;11.10;98.30
27803;DHT22;15182;48.174;11.562;2024-03-06T09:08:39;11.10;98.10
27803;DHT22;15182;48.174;11.562;2024-03-06T09:11:06;11.10;98.10
27803;DHT22;15182;48.174;11.562;2024-03-06T09:13:35;11.10;98.20
27803;DHT22;15182;48.174;11.562;2024-03-06T09:16:03;11.10;98.20
27803;DHT22;15182;48.174;11.562;2024-03-06T09:18:32;11.10;98.20
27803;DHT22;15182;48.174;11.562;2024-03-06T09:21:00;11.20;98.70
27803;DHT22;15182;48.174;11.562;2024-03-06T09:23:28;11.10;98.30
27803;DHT22;15182;48.174;11.562;2024-03-06T09:25:58;11.20;98.30
27803;DHT22;15182;48.174;11.562;2024-03-06T09:28:26;11.20;98.20
27803;DHT22;15182;48.174;11.562;2024-03-06T09:30:54;11.20;98.20
27803;DHT22;15182;48.174;11.562;2024-03-06T09:33:23;11.20;98.20
27803;DHT22;15182;48.174;11.562;2024-03-06T09:35:52;11.30;98.20
27803;DHT22;15182;48.174;11.562;2024-03-06T09:38:22;11.20;98.30
27803;DHT22;15182;48.174;11.562;2024-03-06T09:40:50;11.20;98.30
27803;DHT22;15182;48.174;11.562;2024-03-06T09:43:18;11.30;98.40
27803;DHT22;15182;48.174;11.562;2024-03-06T09:45:48;11.30;98.40
27803;DHT22;15182;48.174;11.562;2024-03-06T09:48:20;11.30;98.50
27803;DHT22;15182;48.174;11.562;2024-03-06T09:50:49;11.40;98.30
27803;DHT22;15182;48.174;11.562;2024-03-06T09:53:20;11.40;98.30
27803;DHT22;15182;48.174;11.562;2024-03-06T09:55:49;11.40;98.40
27803;DHT22;15182;48.174;11.562;2024-03-06T09:58:18;11.40;98.30
27803;DHT22;15182;48.174;11.562;2024-03-06T10:00:46;11.40;98.20
27803;DHT22;15182;48.174;11.562;2024-03-06T10:03:16;11.40;98.30
27803;DHT22;15182;48.174;11.562;2024-03-06T10:05:44;11.40;98.30
27803;DHT22;15182;48.174;11.562;2024-03-06T10:08:12;11.40;98.30
27803;DHT22;15182;48.174;11.562;2024-03-06T10:10:44;11.40;98.30
27803;DHT22;15182;48.174;11.562;2024-03-06T10:13:13;11.40;98.30
27803;DHT22;15182;48.174;11.562;2024-03-06T10:15:55;11.40;98.30
27803;DHT22;15182;48.174;11.562;2024-03-06T10:18:27;11.40;98.30
27803;DHT22;15182;48.174;11.562;2024-03-06T10:20:55;11.40;98.70
27803;DHT22;15182;48.174;11.562;2024-03-06T10:23:23;11.40;98.30
27803;DHT22;15182;48.174;11.562;2024-03-06T10:25:52;11.50;98.40
27803;DHT22;15182;48.174;11.562;2024-03-06T10:28:21;11.50;98.40
27803;DHT22;15182;48.174;11.562;2024-03-06T10:30:51;11.50;98.40
27803;DHT22;15182;48.174;11.562;2024-03-06T10:33:19;11.40;98.40
27803;DHT22;15182;48.174;11.562;2024-03-06T10:35:48;11.50;98.40
27803;DHT22;15182;48.174;11.562;2024-03-06T10:38:16;11.50;98.50
27803;DHT22;15182;48.174;11.562;2024-03-06T10:40:44;11.50;98.40
27803;DHT22;15182;48.174;11.562;2024-03-06T10:43:14;11.50;98.30
27803;DHT22;15182;48.174;11.562;2024-03-06T10:45:47;11.50;98.10
27803;DHT22;15182;48.174;11.562;2024-03-06T10:48:17;11.40;98.10
27803;DHT22;15182;48.174;11.562;2024-03-06T10:50:46;11.40;98.10
27803;DHT22;15182;48.174;11.562;2024-03-06T10:53:15;11.40;98.20
27803;DHT22;15182;48.174;11.562;2024-03-06T10:55:45;11.40;98.20
27803;DHT22;15182;48.174;11.562;2024-03-06T10:58:15;11.40;98.20
27803;DHT22;15182;48.174;11.562;2024-03-06T11:00:46;11.40;98.10
27803;DHT22;15182;48.174;11.562;2024-03-06T11:03:16;11.40;98.10
27803;DHT22;15182;48.174;11.562;2024-03-06T11:05:45;11.40;98.00
27803;DHT22;15182;48.174;11.562;2024-03-06T11:08:15;11.40;98.00
27803;DHT22;15182;48.174;11.562;2024-03-06T11:10:43;11.30;98.00
27803;DHT22;15182;48.174;11.562;2024-03-06T11:13:23;11.40;98.00
27803;DHT22;15182;48.174;11.562;2024-03-06T11:15:53;11.30;98.10
27803;DHT22;15182;48.174;11.562;2024-03-06T11:18:43;11.40;98.10
27803;DHT22;15182;48.174;11.562;2024-03-06T11:21:33;11.40;98.20
27803;DHT22;15182;48.174;11.562;2024-03-06T11:24:18;11.40;98.30
27803;DHT22;15182;48.174;11.562;2024-03-06T11:26:56;11.40;98.10
27803;DHT22;15182;48.174;11.562;2024-03-06T11:29:32;11.40;98.00
27803;DHT22;15182;48.174;11.562;2024-03-06T11:32:37;11.40;97.90
27803;DHT22;15182;48.174;11.562;2024-03-06T11:35:06;11.40;97.90
27803;DHT22;15182;48.174;11.562;2024-03-06T11:37:35;11.40;97.80
27803;DHT22;15182;48.174;11.562;2024-03-06T11:40:07;11.40;97.80
27803;DHT22;15182;48.174;11.562;2024-03-06T11:42:37;11.40;97.90
27803;DHT22;15182;48.174;11.562;2024-03-06T11:45:18;11.40;97.90
27803;DHT22;15182;48.174;11.562;2024-03-06T11:47:59;11.30;98.30
27803;DHT22;15182;48.174;11.562;2024-03-06T11:50:29;11.30;98.00
27803;DHT22;15182;48.174;11.562;2024-03-06T11:52:58;11.40;98.00
27803;DHT22;15182;48.174;11.562;2024-03-06T11:55:26;11.30;98.00
27803;DHT22;15182;48.174;11.562;2024-03-06T11:57:54;11.40;98.10
27803;DHT22;15182;48.174;11.562;2024-03-06T12:00:23;11.40;98.00
27803;DHT22;15182;48.174;11.562;2024-03-06T12:02:51;11.40;98.10
27803;DHT22;15182;48.174;11.562;2024-03-06T12:05:19;11.40;98.00
27803;DHT22;15182;48.174;11.562;2024-03-06T12:07:47;11.40;98.00
27803;DHT22;15182;48.174;11.562;2024-03-06T12:10:17;11.40;97.90
27803;DHT22;15182;48.174;11.562;2024-03-06T12:12:45;11.40;97.90
27803;DHT22;15182;48.174;11.562;2024-03-06T12:15:15;11.40;97.90
27803;DHT22;15182;48.174;11.562;2024-03-06T12:17:47;11.40;97.90
27803;DHT22;15182;48.174;11.562;2024-03-06T12:20:17;11.40;97.90
27803;DHT22;15182;48.174;11.562;2024-03-06T12:22:45;11.40;97.90
27803;DHT22;15182;48.174;11.562;2024-03-06T12:25:19;11.40;97.90
27803;DHT22;15182;48.174;11.562;2024-03-06T12:27:49;11.40;98.00
27803;DHT22;15182;48.174;11.562;2024-03-06T12:30:19;11.40;97.90
27803;DHT22;15182;48.174;11.562;2024-03-06T12:32:57;11.40;97.90
27803;DHT22;15182;48.174;11.562;2024-03-06T12:35:25;11.40;98.00
27803;DHT22;15182;48.174;11.562;2024-03-06T12:37:54;11.40;98.00
27803;DHT22;15182;48.174;11.562;2024-03-06T12:40:22;11.40;98.00
27803;DHT22;15182;48.174;11.562;2024-03-06T12:42:51;11.40;98.00
27803;DHT22;15182;48.174;11.562;2024-03-06T12:45:19;11.40;98.10
27803;DHT22;15182;48.174;11.562;2024-03-06T12:47:47;11.40;98.00
27803;DHT22;15182;48.174;11.562;2024-03-06T12:50:17;11.40;98.00
27803;DHT22;15182;48.174;11.562;2024-03-06T12:52:45;11.40;98.00
27803;DHT22;15182;48.174;11.562;2024-03-06T12:55:13;11.40;97.90
27803;DHT22;15182;48.174;11.562;2024-03-06T12:57:41;11.40;98.00
27803;DHT22;15182;48.174;11.562;2024-03-06T13:00:10;11.40;98.00
27803;DHT22;15182;48.174;11.562;2024-03-06T13:02:42;11.40;98.00
27803;DHT22;15182;48.174;11.562;2024-03-06T13:05:10;11.40;98.00
27803;DHT22;15182;48.174;11.562;2024-03-06T13:07:42;11.30;98.30
27803;DHT22;15182;48.174;11.562;2024-03-06T13:10:11;11.40;97.90
27803;DHT22;15182;48.174;11.562;2024-03-06T13:12:39;11.30;97.90
27803;DHT22;15182;48.174;11.562;2024-03-06T13:15:07;11.40;97.90
27803;DHT22;15182;48.174;11.562;2024-03-06T13:17:35;11.30;97.90
27803;DHT22;15182;48.174;11.562;2024-03-06T13:20:05;11.30;98.00
27803;DHT22;15182;48.174;11.562;2024-03-06T13:22:35;11.30;98.10
27803;DHT22;15182;48.174;11.562;2024-03-06T13:25:06;11.30;98.40
27803;DHT22;15182;48.174;11.562;2024-03-06T13:27:34;11.40;98.20
27803;DHT22;15182;48.174;11.562;2024-03-06T13:30:03;11.30;98.00
27803;DHT22;15182;48.174;11.562;2024-03-06T13:32:34;11.30;97.90
27803;DHT22;15182;48.174;11.562;2024-03-06T13:35:02;11.30;97.90
27803;DHT22;15182;48.174;11.562;2024-03-06T13:37:32;11.30;97.90
27803;DHT22;15182;48.174;11.562;2024-03-06T13:40:01;11.30;98.00
27803;DHT22;15182;48.174;11.562;2024-03-06T13:42:30;11.30;98.00
27803;DHT22;15182;48.174;11.562;2024-03-06T13:44:58;11.30;97.90
27803;DHT22;15182;48.174;11.562;2024-03-06T13:47:26;11.30;97.80
27803;DHT22;15182;48.174;11.562;2024-03-06T13:49:54;11.30;97.90
27803;DHT22;15182;48.174;11.562;2024-03-06T13:52:22;11.30;97.90
27803;DHT22;15182;48.174;11.562;2024-03-06T13:54:51;11.30;97.90
27803;DHT22;15182;48.174;11.562;2024-03-06T13:57:19;11.30;98.00
27803;DHT22;15182;48.174;11.562;2024-03-06T13:59:49;11.30;98.00
27803;DHT22;15182;48.174;11.562;2024-03-06T14:02:17;11.30;98.00
27803;DHT22;15182;48.174;11.562;2024-03-06T14:04:44;11.30;98.10
27803;DHT22;15182;48.174;11.562;2024-03-06T14:07:12;11.30;98.10
27803;DHT22;15182;48.174;11.562;2024-03-06T14:09:40;11.30;98.00
27803;DHT22;15182;48.174;11.562;2024-03-06T14:12:08;11.30;98.00
27803;DHT22;15182;48.174;11.562;2024-03-06T14:14:36;11.40;98.00
27803;DHT22;15182;48.174;11.562;2024-03-06T14:17:05;11.40;98.00
27803;DHT22;15182;48.174;11.562;2024-03-06T14:19:33;11.40;98.00
27803;DHT22;15182;48.174;11.562;2024-03-06T14:22:01;11.40;98.00
27803;DHT22;15182;48.174;11.562;2024-03-06T14:24:29;11.40;97.90
27803;DHT22;15182;48.174;11.562;2024-03-06T14:26:57;11.40;98.00
27803;DHT22;15182;48.174;11.562;2024-03-06T14:29:25;11.40;98.00
27803;DHT22;15182;48.174;11.562;2024-03-06T14:31:54;11.40;98.00
27803;DHT22;15182;48.174;11.562;2024-03-06T14:34:24;11.40;97.90
27803;DHT22;15182;48.174;11.562;2024-03-06T14:36:52;11.50;98.00
27803;DHT22;15182;48.174;11.562;2024-03-06T14:39:20;11.40;98.00
27803;DHT22;15182;48.174;11.562;2024-03-06T14:41:50;11.40;98.00
27803;DHT22;15182;48.174;11.562;2024-03-06T14:44:19;11.50;98.10
27803;DHT22;15182;48.174;11.562;2024-03-06T14:46:47;11.50;98.20
27803;DHT22;15182;48.174;11.562;2024-03-06T14:49:15;11.50;98.10
27803;DHT22;15182;48.174;11.562;2024-03-06T14:51:45;11.50;98.00
27803;DHT22;15182;48.174;11.562;2024-03-06T14:54:13;11.50;97.90
27803;DHT22;15182;48.174;11.562;2024-03-06T14:56:41;11.50;97.80
27803;DHT22;15182;48.174;11.562;2024-03-06T14:59:09;11.50;97.80
27803;DHT22;15182;48.174;11.562;2024-03-06T15:01:39;11.50;97.80
27803;DHT22;15182;48.174;11.562;2024-03-06T15:04:06;11.50;97.70
27803;DHT22;15182;48.174;11.562;2024-03-06T15:06:35;11.50;98.00
27803;DHT22;15182;48.174;11.562;2024-03-06T15:09:05;11.50;97.70
27803;DHT22;15182;48.174;11.562;2024-03-06T15:11:37;11.50;97.70
27803;DHT22;15182;48.174;11.562;2024-03-06T15:14:05;11.50;97.60
27803;DHT22;15182;48.174;11.562;2024-03-06T15:16:34;11.50;98.00
27803;DHT22;15182;48.174;11.562;2024-03-06T15:19:02;11.50;97.70
27803;DHT22;15182;48.174;11.562;2024-03-06T15:21:30;11.50;97.60
27803;DHT22;15182;48.174;11.562;2024-03-06T15:23:58;11.50;97.60
27803;DHT22;15182;48.174;11.562;2024-03-06T15:26:27;11.50;97.50